sensor_id;sensor_type;location;lat;lon;timestamp;P1;durP1;ratioP1;P2;durP2;ratioP2
54408;SDS011;40315;48.620;9.828;2022-12-13T00:01:15;28.60;;;12.40;;
54408;SDS011;40315;48.620;9.828;2022-12-13T00:03:42;20.80;;;10.90;;
54408;SDS011;40315;48.620;9.828;2022-12-13T00:06:10;21.33;;;11.20;;
54408;SDS011;40315;48.620;9.828;2022-12-13T00:08:38;24.70;;;12.70;;
54408;SDS011;40315;48.620;9.828;2022-12-13T00:11:09;23.97;;;12.60;;
54408;SDS011;40315;48.620;9.828;2022-12-13T00:13:37;22.10;;;10.17;;
54408;SDS011;40315;48.620;9.828;2022-12-13T00:16:06;24.90;;;10.97;;
54408;SDS011;40315;48.620;9.828;2022-12-13T00:18:36;20.73;;;11.63;;
54408;SDS011;40315;48.620;9.828;2022-12-13T00:21:03;21.63;;;10.10;;
54408;SDS011;40315;48.620;9.828;2022-12-13T00:23:31;24.87;;;11.33;;
54408;SDS011;40315;48.620;9.828;2022-12-13T00:26:00;23.23;;;10.93;;
54408;SDS011;40315;48.620;9.828;2022-12-13T00:28:32;24.13;;;11.43;;
54408;SDS011;40315;48.620;9.828;2022-12-13T00:31:00;25.23;;;11.60;;
54408;SDS011;40315;48.620;9.828;2022-12-13T00:33:27;19.50;;;10.37;;
54408;SDS011;40315;48.620;9.828;2022-12-13T00:35:57;25.83;;;10.47;;
54408;SDS011;40315;48.620;9.828;2022-12-13T00:38:24;20.57;;;10.47;;
54408;SDS011;40315;48.620;9.828;2022-12-13T00:40:51;22.53;;;11.40;;
54408;SDS011;40315;48.620;9.828;2022-12-13T00:43:18;23.33;;;11.03;;
54408;SDS011;40315;48.620;9.828;2022-12-13T00:45:49;21.97;;;11.60;;
54408;SDS011;40315;48.620;9.828;2022-12-13T00:48:16;25.30;;;10.23;;
54408;SDS011;40315;48.620;9.828;2022-12-13T00:50:43;20.13;;;10.70;;
54408;SDS011;40315;48.620;9.828;2022-12-13T00:53:13;21.20;;;10.17;;
54408;SDS011;40315;48.620;9.828;2022-12-13T00:55:42;21.00;;;10.20;;
54408;SDS011;40315;48.620;9.828;2022-12-13T00:58:11;18.27;;;10.10;;
54408;SDS011;40315;48.620;9.828;2022-12-13T01:00:38;20.43;;;9.47;;
54408;SDS011;40315;48.620;9.828;2022-12-13T01:03:07;17.10;;;9.70;;
54408;SDS011;40315;48.620;9.828;2022-12-13T01:05:45;18.47;;;9.90;;
54408;SDS011;40315;48.620;9.828;2022-12-13T01:08:15;19.23;;;9.70;;
54408;SDS011;40315;48.620;9.828;2022-12-13T01:10:42;19.27;;;10.43;;
54408;SDS011;40315;48.620;9.828;2022-12-13T01:13:14;20.83;;;10.30;;
54408;SDS011;40315;48.620;9.828;2022-12-13T01:15:41;19.50;;;9.67;;
54408;SDS011;40315;48.620;9.828;2022-12-13T01:18:12;21.50;;;10.07;;
54408;SDS011;40315;48.620;9.828;2022-12-13T01:20:42;17.63;;;9.17;;
54408;SDS011;40315;48.620;9.828;2022-12-13T01:23:09;20.20;;;10.80;;
54408;SDS011;40315;48.620;9.828;2022-12-13T01:25:36;18.13;;;8.83;;
54408;SDS011;40315;48.620;9.828;2022-12-13T01:28:04;16.67;;;8.70;;
54408;SDS011;40315;48.620;9.828;2022-12-13T01:30:30;20.67;;;9.07;;
54408;SDS011;40315;48.620;9.828;2022-12-13T01:32:58;18.17;;;8.97;;
54408;SDS011;40315;48.620;9.828;2022-12-13T01:35:28;17.90;;;8.80;;
54408;SDS011;40315;48.620;9.828;2022-12-13T01:37:55;17.60;;;8.13;;
54408;SDS011;40315;48.620;9.828;2022-12-13T01:40:22;18.00;;;9.00;;
54408;SDS011;40315;48.620;9.828;2022-12-13T01:49:34;15.57;;;8.00;;
54408;SDS011;40315;48.620;9.828;2022-12-13T01:52:04;19.03;;;9.90;;
54408;SDS011;40315;48.620;9.828;2022-12-13T01:54:37;18.00;;;9.17;;
54408;SDS011;40315;48.620;9.828;2022-12-13T01:57:09;18.63;;;8.10;;
54408;SDS011;40315;48.620;9.828;2022-12-13T01:59:39;19.43;;;9.13;;
54408;SDS011;40315;48.620;9.828;2022-12-13T02:02:07;19.53;;;8.77;;
54408;SDS011;40315;48.620;9.828;2022-12-13T02:04:36;18.50;;;8.57;;
54408;SDS011;40315;48.620;9.828;2022-12-13T02:07:10;16.73;;;9.37;;
54408;SDS011;40315;48.620;9.828;2022-12-13T02:09:40;14.87;;;8.70;;
54408;SDS011;40315;48.620;9.828;2022-12-13T02:12:08;20.40;;;9.30;;
54408;SDS011;40315;48.620;9.828;2022-12-13T02:14:35;19.00;;;9.37;;
54408;SDS011;40315;48.620;9.828;2022-12-13T02:17:06;14.37;;;8.37;;
54408;SDS011;40315;48.620;9.828;2022-12-13T02:19:52;16.30;;;8.53;;
54408;SDS011;40315;48.620;9.828;2022-12-13T02:22:47;15.47;;;8.70;;
54408;SDS011;40315;48.620;9.828;2022-12-13T02:25:39;16.03;;;8.17;;
54408;SDS011;40315;48.620;9.828;2022-12-13T02:28:27;16.57;;;8.83;;
54408;SDS011;40315;48.620;9.828;2022-12-13T02:31:08;20.37;;;9.03;;
54408;SDS011;40315;48.620;9.828;2022-12-13T02:33:39;17.33;;;8.40;;
54408;SDS011;40315;48.620;9.828;2022-12-13T02:36:16;19.90;;;9.30;;
54408;SDS011;40315;48.620;9.828;2022-12-13T02:38:55;18.80;;;8.93;;
54408;SDS011;40315;48.620;9.828;2022-12-13T02:41:27;16.10;;;8.63;;
54408;SDS011;40315;48.620;9.828;2022-12-13T02:44:03;18.10;;;7.93;;
54408;SDS011;40315;48.620;9.828;2022-12-13T02:46:35;16.77;;;8.97;;
54408;SDS011;40315;48.620;9.828;2022-12-13T02:49:06;16.67;;;8.90;;
54408;SDS011;40315;48.620;9.828;2022-12-13T02:51:35;19.30;;;9.07;;
54408;SDS011;40315;48.620;9.828;2022-12-13T02:54:07;15.50;;;8.43;;
54408;SDS011;40315;48.620;9.828;2022-12-13T02:56:37;18.13;;;7.93;;
54408;SDS011;40315;48.620;9.828;2022-12-13T02:59:08;14.20;;;8.63;;
54408;SDS011;40315;48.620;9.828;2022-12-13T03:01:46;15.67;;;8.57;;
54408;SDS011;40315;48.620;9.828;2022-12-13T03:04:22;18.30;;;8.40;;
54408;SDS011;40315;48.620;9.828;2022-12-13T03:07:25;14.50;;;8.47;;
54408;SDS011;40315;48.620;9.828;2022-12-13T03:09:58;14.90;;;8.73;;
54408;SDS011;40315;48.620;9.828;2022-12-13T03:12:35;15.27;;;7.97;;
54408;SDS011;40315;48.620;9.828;2022-12-13T03:15:23;15.53;;;8.57;;
54408;SDS011;40315;48.620;9.828;2022-12-13T03:17:56;18.30;;;9.53;;
54408;SDS011;40315;48.620;9.828;2022-12-13T03:20:29;15.73;;;8.90;;
54408;SDS011;40315;48.620;9.828;2022-12-13T03:22:58;14.93;;;7.63;;
54408;SDS011;40315;48.620;9.828;2022-12-13T03:25:26;18.40;;;9.83;;
54408;SDS011;40315;48.620;9.828;2022-12-13T03:27:56;20.93;;;9.60;;
54408;SDS011;40315;48.620;9.828;2022-12-13T03:30:23;14.83;;;7.97;;
54408;SDS011;40315;48.620;9.828;2022-12-13T03:32:49;16.47;;;8.50;;
54408;SDS011;40315;48.620;9.828;2022-12-13T03:35:18;13.57;;;7.40;;
54408;SDS011;40315;48.620;9.828;2022-12-13T03:37:45;17.63;;;8.50;;
54408;SDS011;40315;48.620;9.828;2022-12-13T03:40:12;18.33;;;8.80;;
54408;SDS011;40315;48.620;9.828;2022-12-13T03:42:39;14.93;;;7.70;;
54408;SDS011;40315;48.620;9.828;2022-12-13T03:45:06;14.40;;;7.73;;
54408;SDS011;40315;48.620;9.828;2022-12-13T03:47:34;15.47;;;7.70;;
54408;SDS011;40315;48.620;9.828;2022-12-13T03:50:01;16.30;;;8.17;;
54408;SDS011;40315;48.620;9.828;2022-12-13T03:52:30;16.40;;;7.93;;
54408;SDS011;40315;48.620;9.828;2022-12-13T03:54:58;20.07;;;8.17;;
54408;SDS011;40315;48.620;9.828;2022-12-13T03:57:25;17.07;;;8.13;;
54408;SDS011;40315;48.620;9.828;2022-12-13T03:59:54;19.10;;;8.77;;
54408;SDS011;40315;48.620;9.828;2022-12-13T04:02:21;14.07;;;7.63;;
54408;SDS011;40315;48.620;9.828;2022-12-13T04:04:48;14.60;;;7.73;;
54408;SDS011;40315;48.620;9.828;2022-12-13T04:07:16;14.97;;;7.93;;
54408;SDS011;40315;48.620;9.828;2022-12-13T04:09:45;18.67;;;7.93;;
54408;SDS011;40315;48.620;9.828;2022-12-13T04:12:11;17.90;;;8.43;;
54408;SDS011;40315;48.620;9.828;2022-12-13T04:14:56;16.60;;;8.23;;
54408;SDS011;40315;48.620;9.828;2022-12-13T04:17:23;15.33;;;8.10;;
54408;SDS011;40315;48.620;9.828;2022-12-13T04:19:50;16.30;;;8.13;;
54408;SDS011;40315;48.620;9.828;2022-12-13T04:22:17;14.77;;;8.13;;
54408;SDS011;40315;48.620;9.828;2022-12-13T04:24:48;19.80;;;8.27;;
54408;SDS011;40315;48.620;9.828;2022-12-13T04:27:15;15.80;;;7.77;;
54408;SDS011;40315;48.620;9.828;2022-12-13T04:29:42;16.60;;;7.90;;
54408;SDS011;40315;48.620;9.828;2022-12-13T04:32:09;18.03;;;8.03;;
54408;SDS011;40315;48.620;9.828;2022-12-13T04:34:36;14.37;;;7.60;;
54408;SDS011;40315;48.620;9.828;2022-12-13T04:37:03;13.20;;;6.73;;
54408;SDS011;40315;48.620;9.828;2022-12-13T04:39:33;14.77;;;6.50;;
54408;SDS011;40315;48.620;9.828;2022-12-13T04:42:01;13.73;;;7.13;;
54408;SDS011;40315;48.620;9.828;2022-12-13T04:44:29;14.93;;;8.03;;
54408;SDS011;40315;48.620;9.828;2022-12-13T04:46:59;13.50;;;7.17;;
54408;SDS011;40315;48.620;9.828;2022-12-13T04:49:26;14.53;;;7.63;;
54408;SDS011;40315;48.620;9.828;2022-12-13T04:51:54;13.90;;;7.00;;
54408;SDS011;40315;48.620;9.828;2022-12-13T04:54:21;12.30;;;7.07;;
54408;SDS011;40315;48.620;9.828;2022-12-13T04:56:48;14.30;;;7.67;;
54408;SDS011;40315;48.620;9.828;2022-12-13T04:59:17;15.87;;;7.70;;
54408;SDS011;40315;48.620;9.828;2022-12-13T05:01:44;14.30;;;7.20;;
54408;SDS011;40315;48.620;9.828;2022-12-13T05:04:11;14.50;;;6.30;;
54408;SDS011;40315;48.620;9.828;2022-12-13T05:06:38;13.13;;;7.40;;
54408;SDS011;40315;48.620;9.828;2022-12-13T05:09:05;12.67;;;7.17;;
54408;SDS011;40315;48.620;9.828;2022-12-13T05:11:32;16.13;;;8.07;;
54408;SDS011;40315;48.620;9.828;2022-12-13T05:14:00;13.50;;;7.30;;
54408;SDS011;40315;48.620;9.828;2022-12-13T05:16:28;15.07;;;7.70;;
54408;SDS011;40315;48.620;9.828;2022-12-13T05:18:55;13.37;;;7.37;;
54408;SDS011;40315;48.620;9.828;2022-12-13T05:21:22;18.63;;;8.03;;
54408;SDS011;40315;48.620;9.828;2022-12-13T05:23:49;16.77;;;8.07;;
54408;SDS011;40315;48.620;9.828;2022-12-13T05:26:16;13.03;;;8.13;;
54408;SDS011;40315;48.620;9.828;2022-12-13T05:28:43;11.60;;;6.97;;
54408;SDS011;40315;48.620;9.828;2022-12-13T05:31:10;15.03;;;7.60;;
54408;SDS011;40315;48.620;9.828;2022-12-13T05:33:39;18.60;;;8.20;;
54408;SDS011;40315;48.620;9.828;2022-12-13T05:36:07;12.63;;;7.27;;
54408;SDS011;40315;48.620;9.828;2022-12-13T05:38:35;15.13;;;7.50;;
54408;SDS011;40315;48.620;9.828;2022-12-13T05:41:02;16.77;;;7.53;;
54408;SDS011;40315;48.620;9.828;2022-12-13T05:43:29;15.13;;;7.17;;
54408;SDS011;40315;48.620;9.828;2022-12-13T05:45:56;14.20;;;8.00;;
54408;SDS011;40315;48.620;9.828;2022-12-13T05:48:23;14.20;;;7.20;;
54408;SDS011;40315;48.620;9.828;2022-12-13T05:50:52;15.27;;;6.97;;
54408;SDS011;40315;48.620;9.828;2022-12-13T05:53:19;12.37;;;6.87;;
54408;SDS011;40315;48.620;9.828;2022-12-13T05:55:45;13.77;;;7.03;;
54408;SDS011;40315;48.620;9.828;2022-12-13T05:58:12;18.20;;;7.30;;
54408;SDS011;40315;48.620;9.828;2022-12-13T06:00:40;12.87;;;7.33;;
54408;SDS011;40315;48.620;9.828;2022-12-13T06:03:11;14.60;;;7.37;;
54408;SDS011;40315;48.620;9.828;2022-12-13T06:05:38;14.63;;;7.87;;
54408;SDS011;40315;48.620;9.828;2022-12-13T06:08:07;16.03;;;7.60;;
54408;SDS011;40315;48.620;9.828;2022-12-13T06:10:35;15.73;;;6.73;;
54408;SDS011;40315;48.620;9.828;2022-12-13T06:13:04;16.67;;;7.27;;
54408;SDS011;40315;48.620;9.828;2022-12-13T06:15:31;15.67;;;7.40;;
54408;SDS011;40315;48.620;9.828;2022-12-13T06:17:58;14.53;;;6.83;;
54408;SDS011;40315;48.620;9.828;2022-12-13T06:20:26;15.77;;;7.40;;
54408;SDS011;40315;48.620;9.828;2022-12-13T06:22:54;17.03;;;7.47;;
54408;SDS011;40315;48.620;9.828;2022-12-13T06:25:25;14.70;;;7.33;;
54408;SDS011;40315;48.620;9.828;2022-12-13T06:27:52;17.23;;;7.70;;
54408;SDS011;40315;48.620;9.828;2022-12-13T06:30:19;15.90;;;7.43;;
54408;SDS011;40315;48.620;9.828;2022-12-13T06:32:49;16.80;;;8.10;;
54408;SDS011;40315;48.620;9.828;2022-12-13T06:35:15;16.13;;;7.73;;
54408;SDS011;40315;48.620;9.828;2022-12-13T06:37:44;15.17;;;8.07;;
54408;SDS011;40315;48.620;9.828;2022-12-13T06:40:14;15.37;;;7.67;;
54408;SDS011;40315;48.620;9.828;2022-12-13T06:42:42;14.77;;;7.13;;
54408;SDS011;40315;48.620;9.828;2022-12-13T06:45:09;18.07;;;8.40;;
54408;SDS011;40315;48.620;9.828;2022-12-13T06:47:36;17.73;;;8.30;;
54408;SDS011;40315;48.620;9.828;2022-12-13T06:50:04;16.40;;;8.70;;
54408;SDS011;40315;48.620;9.828;2022-12-13T06:52:32;21.07;;;8.73;;
54408;SDS011;40315;48.620;9.828;2022-12-13T06:55:01;17.07;;;9.23;;
54408;SDS011;40315;48.620;9.828;2022-12-13T06:57:30;18.33;;;8.70;;
54408;SDS011;40315;48.620;9.828;2022-12-13T06:59:59;18.33;;;8.73;;
54408;SDS011;40315;48.620;9.828;2022-12-13T07:02:29;17.10;;;8.40;;
54408;SDS011;40315;48.620;9.828;2022-12-13T07:04:56;24.73;;;10.17;;
54408;SDS011;40315;48.620;9.828;2022-12-13T07:07:23;22.23;;;9.43;;
54408;SDS011;40315;48.620;9.828;2022-12-13T07:09:51;20.27;;;9.17;;
54408;SDS011;40315;48.620;9.828;2022-12-13T07:12:18;25.40;;;10.60;;
54408;SDS011;40315;48.620;9.828;2022-12-13T07:14:45;23.73;;;9.27;;
54408;SDS011;40315;48.620;9.828;2022-12-13T07:17:14;21.93;;;10.00;;
54408;SDS011;40315;48.620;9.828;2022-12-13T07:19:41;24.50;;;11.20;;
54408;SDS011;40315;48.620;9.828;2022-12-13T07:22:08;22.37;;;10.07;;
54408;SDS011;40315;48.620;9.828;2022-12-13T07:24:35;22.07;;;10.07;;
54408;SDS011;40315;48.620;9.828;2022-12-13T07:27:02;20.93;;;10.63;;
54408;SDS011;40315;48.620;9.828;2022-12-13T07:29:30;18.30;;;8.47;;
54408;SDS011;40315;48.620;9.828;2022-12-13T07:31:57;21.57;;;8.57;;
54408;SDS011;40315;48.620;9.828;2022-12-13T07:34:25;22.70;;;9.23;;
54408;SDS011;40315;48.620;9.828;2022-12-13T07:36:52;22.17;;;10.33;;
54408;SDS011;40315;48.620;9.828;2022-12-13T07:39:19;24.80;;;10.33;;
54408;SDS011;40315;48.620;9.828;2022-12-13T07:41:51;22.17;;;9.83;;
54408;SDS011;40315;48.620;9.828;2022-12-13T07:44:20;19.27;;;9.60;;
54408;SDS011;40315;48.620;9.828;2022-12-13T07:46:47;21.33;;;10.10;;
54408;SDS011;40315;48.620;9.828;2022-12-13T07:49:14;21.87;;;9.97;;
54408;SDS011;40315;48.620;9.828;2022-12-13T07:51:45;19.67;;;9.27;;
54408;SDS011;40315;48.620;9.828;2022-12-13T07:54:12;21.23;;;10.13;;
54408;SDS011;40315;48.620;9.828;2022-12-13T07:56:41;21.87;;;10.17;;
54408;SDS011;40315;48.620;9.828;2022-12-13T07:59:08;23.23;;;10.80;;
54408;SDS011;40315;48.620;9.828;2022-12-13T08:01:36;20.03;;;10.30;;
54408;SDS011;40315;48.620;9.828;2022-12-13T08:04:07;22.37;;;9.23;;
54408;SDS011;40315;48.620;9.828;2022-12-13T08:06:34;21.63;;;9.47;;
54408;SDS011;40315;48.620;9.828;2022-12-13T08:09:03;22.80;;;9.50;;
54408;SDS011;40315;48.620;9.828;2022-12-13T08:11:31;21.17;;;9.50;;
54408;SDS011;40315;48.620;9.828;2022-12-13T08:13:58;19.90;;;10.00;;
54408;SDS011;40315;48.620;9.828;2022-12-13T08:16:25;21.40;;;10.10;;
54408;SDS011;40315;48.620;9.828;2022-12-13T08:18:53;19.70;;;9.80;;
54408;SDS011;40315;48.620;9.828;2022-12-13T08:21:20;22.80;;;9.97;;
54408;SDS011;40315;48.620;9.828;2022-12-13T08:23:47;18.73;;;9.20;;
54408;SDS011;40315;48.620;9.828;2022-12-13T08:26:16;16.90;;;8.60;;
54408;SDS011;40315;48.620;9.828;2022-12-13T08:28:43;18.70;;;8.77;;
54408;SDS011;40315;48.620;9.828;2022-12-13T08:31:10;18.27;;;9.20;;
54408;SDS011;40315;48.620;9.828;2022-12-13T08:33:40;17.03;;;9.20;;
54408;SDS011;40315;48.620;9.828;2022-12-13T08:36:10;17.97;;;8.77;;
54408;SDS011;40315;48.620;9.828;2022-12-13T08:38:42;18.93;;;9.53;;
54408;SDS011;40315;48.620;9.828;2022-12-13T08:41:09;18.23;;;9.27;;
54408;SDS011;40315;48.620;9.828;2022-12-13T08:43:38;18.63;;;8.90;;
54408;SDS011;40315;48.620;9.828;2022-12-13T08:46:08;17.63;;;8.47;;
54408;SDS011;40315;48.620;9.828;2022-12-13T08:48:35;18.40;;;8.93;;
54408;SDS011;40315;48.620;9.828;2022-12-13T08:51:02;16.80;;;9.17;;
54408;SDS011;40315;48.620;9.828;2022-12-13T08:53:30;19.83;;;8.43;;
54408;SDS011;40315;48.620;9.828;2022-12-13T08:55:59;14.20;;;6.97;;
54408;SDS011;40315;48.620;9.828;2022-12-13T08:58:27;16.20;;;8.13;;
54408;SDS011;40315;48.620;9.828;2022-12-13T09:00:56;16.73;;;7.47;;
54408;SDS011;40315;48.620;9.828;2022-12-13T09:03:23;18.17;;;8.23;;
54408;SDS011;40315;48.620;9.828;2022-12-13T09:05:53;16.87;;;7.50;;
54408;SDS011;40315;48.620;9.828;2022-12-13T09:08:20;14.90;;;7.97;;
54408;SDS011;40315;48.620;9.828;2022-12-13T09:10:54;15.13;;;7.13;;
54408;SDS011;40315;48.620;9.828;2022-12-13T09:13:22;12.87;;;7.30;;
54408;SDS011;40315;48.620;9.828;2022-12-13T09:15:52;11.53;;;6.70;;
54408;SDS011;40315;48.620;9.828;2022-12-13T09:18:20;18.23;;;8.43;;
54408;SDS011;40315;48.620;9.828;2022-12-13T09:20:47;18.50;;;8.00;;
54408;SDS011;40315;48.620;9.828;2022-12-13T09:23:14;13.87;;;6.73;;
54408;SDS011;40315;48.620;9.828;2022-12-13T09:25:44;16.00;;;7.20;;
54408;SDS011;40315;48.620;9.828;2022-12-13T09:28:20;15.47;;;7.03;;
54408;SDS011;40315;48.620;9.828;2022-12-13T09:30:48;14.27;;;6.80;;
54408;SDS011;40315;48.620;9.828;2022-12-13T09:33:15;15.70;;;7.60;;
54408;SDS011;40315;48.620;9.828;2022-12-13T09:35:45;11.90;;;6.93;;
54408;SDS011;40315;48.620;9.828;2022-12-13T09:38:12;13.47;;;6.70;;
54408;SDS011;40315;48.620;9.828;2022-12-13T09:40:42;12.83;;;6.50;;
54408;SDS011;40315;48.620;9.828;2022-12-13T09:43:15;14.60;;;7.40;;
54408;SDS011;40315;48.620;9.828;2022-12-13T09:45:48;16.90;;;7.67;;
54408;SDS011;40315;48.620;9.828;2022-12-13T09:48:16;14.23;;;7.33;;
54408;SDS011;40315;48.620;9.828;2022-12-13T09:50:47;15.73;;;7.77;;
54408;SDS011;40315;48.620;9.828;2022-12-13T09:53:18;14.07;;;6.97;;
54408;SDS011;40315;48.620;9.828;2022-12-13T09:55:48;17.50;;;7.70;;
54408;SDS011;40315;48.620;9.828;2022-12-13T09:58:17;12.70;;;6.80;;
54408;SDS011;40315;48.620;9.828;2022-12-13T10:00:47;14.70;;;6.97;;
54408;SDS011;40315;48.620;9.828;2022-12-13T10:03:17;15.80;;;7.97;;
54408;SDS011;40315;48.620;9.828;2022-12-13T10:05:50;13.07;;;6.17;;
54408;SDS011;40315;48.620;9.828;2022-12-13T10:08:27;13.33;;;6.53;;
54408;SDS011;40315;48.620;9.828;2022-12-13T10:11:01;12.03;;;6.83;;
54408;SDS011;40315;48.620;9.828;2022-12-13T10:13:33;13.17;;;6.40;;
54408;SDS011;40315;48.620;9.828;2022-12-13T10:16:10;14.10;;;7.17;;
54408;SDS011;40315;48.620;9.828;2022-12-13T10:18:41;13.83;;;6.70;;
54408;SDS011;40315;48.620;9.828;2022-12-13T10:21:13;17.50;;;7.33;;
54408;SDS011;40315;48.620;9.828;2022-12-13T10:23:45;15.00;;;6.97;;
54408;SDS011;40315;48.620;9.828;2022-12-13T10:26:13;12.23;;;6.80;;
54408;SDS011;40315;48.620;9.828;2022-12-13T10:28:42;13.83;;;6.53;;
54408;SDS011;40315;48.620;9.828;2022-12-13T10:31:14;12.70;;;6.37;;
54408;SDS011;40315;48.620;9.828;2022-12-13T10:33:48;14.00;;;6.77;;
54408;SDS011;40315;48.620;9.828;2022-12-13T10:36:32;13.53;;;6.90;;
54408;SDS011;40315;48.620;9.828;2022-12-13T10:39:00;18.50;;;9.13;;
54408;SDS011;40315;48.620;9.828;2022-12-13T10:41:30;15.30;;;7.97;;
54408;SDS011;40315;48.620;9.828;2022-12-13T10:44:14;15.80;;;8.73;;
54408;SDS011;40315;48.620;9.828;2022-12-13T10:46:51;15.50;;;9.13;;
54408;SDS011;40315;48.620;9.828;2022-12-13T10:49:34;15.83;;;8.97;;
54408;SDS011;40315;48.620;9.828;2022-12-13T10:52:17;12.27;;;6.87;;
54408;SDS011;40315;48.620;9.828;2022-12-13T10:54:48;16.53;;;9.00;;
54408;SDS011;40315;48.620;9.828;2022-12-13T10:57:17;13.63;;;8.10;;
54408;SDS011;40315;48.620;9.828;2022-12-13T10:59:47;15.03;;;7.40;;
54408;SDS011;40315;48.620;9.828;2022-12-13T11:05:20;14.07;;;6.33;;
54408;SDS011;40315;48.620;9.828;2022-12-13T11:07:51;13.20;;;7.53;;
54408;SDS011;40315;48.620;9.828;2022-12-13T11:10:23;21.63;;;11.60;;
54408;SDS011;40315;48.620;9.828;2022-12-13T11:12:52;21.13;;;12.70;;
54408;SDS011;40315;48.620;9.828;2022-12-13T11:15:24;21.40;;;12.67;;
54408;SDS011;40315;48.620;9.828;2022-12-13T11:17:54;18.37;;;9.83;;
54408;SDS011;40315;48.620;9.828;2022-12-13T11:20:25;17.20;;;11.03;;
54408;SDS011;40315;48.620;9.828;2022-12-13T11:22:59;13.93;;;8.93;;
54408;SDS011;40315;48.620;9.828;2022-12-13T11:25:30;13.00;;;6.60;;
54408;SDS011;40315;48.620;9.828;2022-12-13T11:28:06;17.00;;;7.97;;
54408;SDS011;40315;48.620;9.828;2022-12-13T11:30:49;13.33;;;7.23;;
54408;SDS011;40315;48.620;9.828;2022-12-13T11:33:25;13.00;;;6.67;;
54408;SDS011;40315;48.620;9.828;2022-12-13T11:36:03;12.30;;;7.20;;
54408;SDS011;40315;48.620;9.828;2022-12-13T11:38:44;15.03;;;6.37;;
54408;SDS011;40315;48.620;9.828;2022-12-13T11:41:23;12.40;;;7.00;;
54408;SDS011;40315;48.620;9.828;2022-12-13T11:43:57;15.30;;;7.27;;
54408;SDS011;40315;48.620;9.828;2022-12-13T11:46:28;14.20;;;6.90;;
54408;SDS011;40315;48.620;9.828;2022-12-13T11:49:07;13.53;;;7.07;;
54408;SDS011;40315;48.620;9.828;2022-12-13T11:51:39;14.60;;;7.40;;
54408;SDS011;40315;48.620;9.828;2022-12-13T11:54:14;13.93;;;7.07;;
54408;SDS011;40315;48.620;9.828;2022-12-13T11:56:48;13.83;;;7.57;;
54408;SDS011;40315;48.620;9.828;2022-12-13T11:59:20;15.33;;;8.17;;
54408;SDS011;40315;48.620;9.828;2022-12-13T12:02:00;14.37;;;7.57;;
54408;SDS011;40315;48.620;9.828;2022-12-13T12:04:38;14.07;;;7.50;;
54408;SDS011;40315;48.620;9.828;2022-12-13T12:07:12;15.70;;;7.50;;
54408;SDS011;40315;48.620;9.828;2022-12-13T12:09:43;14.10;;;7.03;;
54408;SDS011;40315;48.620;9.828;2022-12-13T12:12:15;14.47;;;7.70;;
54408;SDS011;40315;48.620;9.828;2022-12-13T12:14:51;15.40;;;7.87;;
54408;SDS011;40315;48.620;9.828;2022-12-13T12:17:22;14.07;;;7.23;;
54408;SDS011;40315;48.620;9.828;2022-12-13T12:19:51;13.37;;;7.30;;
54408;SDS011;40315;48.620;9.828;2022-12-13T12:22:25;11.63;;;6.73;;
54408;SDS011;40315;48.620;9.828;2022-12-13T12:25:09;12.93;;;6.77;;
54408;SDS011;40315;48.620;9.828;2022-12-13T12:27:47;13.87;;;7.13;;
54408;SDS011;40315;48.620;9.828;2022-12-13T12:30:20;14.23;;;7.77;;
54408;SDS011;40315;48.620;9.828;2022-12-13T12:32:53;15.83;;;7.27;;
54408;SDS011;40315;48.620;9.828;2022-12-13T12:35:33;13.63;;;6.77;;
54408;SDS011;40315;48.620;9.828;2022-12-13T12:38:29;11.83;;;6.53;;
54408;SDS011;40315;48.620;9.828;2022-12-13T12:41:14;12.50;;;6.93;;
54408;SDS011;40315;48.620;9.828;2022-12-13T12:43:49;12.27;;;6.50;;
54408;SDS011;40315;48.620;9.828;2022-12-13T12:46:31;13.20;;;6.67;;
54408;SDS011;40315;48.620;9.828;2022-12-13T12:49:22;11.07;;;6.93;;
54408;SDS011;40315;48.620;9.828;2022-12-13T12:52:18;13.60;;;6.83;;
54408;SDS011;40315;48.620;9.828;2022-12-13T12:54:51;13.27;;;7.50;;
54408;SDS011;40315;48.620;9.828;2022-12-13T12:57:31;15.57;;;7.10;;
54408;SDS011;40315;48.620;9.828;2022-12-13T13:00:08;12.60;;;6.63;;
54408;SDS011;40315;48.620;9.828;2022-12-13T13:02:42;16.07;;;7.67;;
54408;SDS011;40315;48.620;9.828;2022-12-13T13:05:14;12.17;;;6.77;;
54408;SDS011;40315;48.620;9.828;2022-12-13T13:07:48;12.33;;;7.17;;
54408;SDS011;40315;48.620;9.828;2022-12-13T13:10:20;14.73;;;7.23;;
54408;SDS011;40315;48.620;9.828;2022-12-13T13:12:52;14.57;;;7.33;;
54408;SDS011;40315;48.620;9.828;2022-12-13T13:21:24;13.33;;;6.93;;
54408;SDS011;40315;48.620;9.828;2022-12-13T13:24:11;14.17;;;6.87;;
54408;SDS011;40315;48.620;9.828;2022-12-13T13:26:57;12.83;;;7.07;;
54408;SDS011;40315;48.620;9.828;2022-12-13T13:29:46;11.63;;;6.30;;
54408;SDS011;40315;48.620;9.828;2022-12-13T13:32:26;13.10;;;6.77;;
54408;SDS011;40315;48.620;9.828;2022-12-13T13:38:27;11.40;;;6.37;;
54408;SDS011;40315;48.620;9.828;2022-12-13T13:44:33;13.47;;;7.30;;
54408;SDS011;40315;48.620;9.828;2022-12-13T13:47:29;14.03;;;6.60;;
54408;SDS011;40315;48.620;9.828;2022-12-13T13:50:10;11.77;;;6.10;;
54408;SDS011;40315;48.620;9.828;2022-12-13T13:53:04;14.17;;;6.33;;
54408;SDS011;40315;48.620;9.828;2022-12-13T13:56:04;11.23;;;6.50;;
54408;SDS011;40315;48.620;9.828;2022-12-13T13:59:04;10.37;;;5.70;;
54408;SDS011;40315;48.620;9.828;2022-12-13T14:05:08;13.23;;;6.80;;
54408;SDS011;40315;48.620;9.828;2022-12-13T14:10:49;15.93;;;7.67;;
54408;SDS011;40315;48.620;9.828;2022-12-13T14:13:39;11.23;;;5.90;;
54408;SDS011;40315;48.620;9.828;2022-12-13T14:16:39;11.90;;;5.87;;
54408;SDS011;40315;48.620;9.828;2022-12-13T14:22:54;14.83;;;7.07;;
54408;SDS011;40315;48.620;9.828;2022-12-13T14:25:40;13.60;;;6.07;;
54408;SDS011;40315;48.620;9.828;2022-12-13T14:28:22;13.00;;;6.50;;
54408;SDS011;40315;48.620;9.828;2022-12-13T14:30:57;11.37;;;6.07;;
54408;SDS011;40315;48.620;9.828;2022-12-13T14:33:24;13.47;;;6.57;;
54408;SDS011;40315;48.620;9.828;2022-12-13T14:35:52;14.90;;;6.43;;
54408;SDS011;40315;48.620;9.828;2022-12-13T14:38:25;12.40;;;6.90;;
54408;SDS011;40315;48.620;9.828;2022-12-13T14:40:55;14.67;;;7.00;;
54408;SDS011;40315;48.620;9.828;2022-12-13T14:43:24;14.57;;;7.60;;
54408;SDS011;40315;48.620;9.828;2022-12-13T14:45:54;15.10;;;7.40;;
54408;SDS011;40315;48.620;9.828;2022-12-13T14:48:23;15.17;;;7.20;;
54408;SDS011;40315;48.620;9.828;2022-12-13T14:50:51;13.43;;;7.23;;
54408;SDS011;40315;48.620;9.828;2022-12-13T14:53:22;13.90;;;7.50;;
54408;SDS011;40315;48.620;9.828;2022-12-13T14:56:04;11.27;;;6.73;;
54408;SDS011;40315;48.620;9.828;2022-12-13T14:58:33;15.90;;;8.17;;
54408;SDS011;40315;48.620;9.828;2022-12-13T15:01:01;13.40;;;7.80;;
54408;SDS011;40315;48.620;9.828;2022-12-13T15:03:29;14.47;;;7.97;;
54408;SDS011;40315;48.620;9.828;2022-12-13T15:06:00;15.67;;;7.40;;
54408;SDS011;40315;48.620;9.828;2022-12-13T15:08:30;13.57;;;6.93;;
54408;SDS011;40315;48.620;9.828;2022-12-13T15:11:00;13.47;;;7.60;;
54408;SDS011;40315;48.620;9.828;2022-12-13T15:13:30;15.40;;;8.20;;
54408;SDS011;40315;48.620;9.828;2022-12-13T15:16:02;15.57;;;7.70;;
54408;SDS011;40315;48.620;9.828;2022-12-13T15:19:03;19.00;;;8.33;;
54408;SDS011;40315;48.620;9.828;2022-12-13T15:21:35;15.63;;;8.30;;
54408;SDS011;40315;48.620;9.828;2022-12-13T15:24:09;20.00;;;8.87;;
54408;SDS011;40315;48.620;9.828;2022-12-13T15:26:41;15.33;;;7.97;;
54408;SDS011;40315;48.620;9.828;2022-12-13T15:29:09;17.53;;;9.43;;
54408;SDS011;40315;48.620;9.828;2022-12-13T15:31:48;17.17;;;9.53;;